createdAt,value
2023-05-22T00:02:18.239Z,97680.41
2023-05-22T00:04:51.163Z,97679.20
2023-05-22T00:07:23.307Z,97676.70
2023-05-22T00:09:54.355Z,97675.26
2023-05-22T00:12:25.718Z,97674.88
2023-05-22T00:14:56.810Z,97675.15
2023-05-22T00:17:31.067Z,97673.74
2023-05-22T00:20:08.046Z,97672.79
2023-05-22T00:22:37.969Z,97668.32
2023-05-22T00:25:11.473Z,97666.02
2023-05-22T00:27:42.502Z,97662.14
2023-05-22T00:30:14.916Z,97664.88
2023-05-22T00:32:46.151Z,97664.16
2023-05-22T00:35:17.221Z,97664.66
2023-05-22T00:37:48.559Z,97666.25
2023-05-22T00:40:20.043Z,97669.35
2023-05-22T00:42:51.028Z,97667.33
2023-05-22T00:45:23.761Z,97666.90
2023-05-22T00:47:54.918Z,97665.00
2023-05-22T00:50:26.420Z,97662.55
2023-05-22T00:52:57.601Z,97658.52
2023-05-22T00:55:28.649Z,97657.33
2023-05-22T00:58:00.608Z,97656.23
2023-05-22T01:00:34.176Z,97656.39
2023-05-22T01:03:08.042Z,97655.48
2023-05-22T01:05:40.682Z,97657.11
2023-05-22T01:08:12.479Z,97658.31
2023-05-22T01:10:43.742Z,97656.58
2023-05-22T01:13:26.722Z,97656.60
2023-05-22T01:16:07.104Z,97663.23
2023-05-22T01:18:45.517Z,97663.20
2023-05-22T01:21:23.179Z,97664.83
2023-05-22T01:24:16.306Z,97665.54
2023-05-22T01:27:35.267Z,97663.95
2023-05-22T01:30:22.265Z,97663.24
2023-05-22T01:32:57.530Z,97667.40
2023-05-22T01:35:29.952Z,97666.56
2023-05-22T01:38:01.816Z,97665.78
2023-05-22T01:40:34.477Z,97666.79
2023-05-22T01:43:05.666Z,97668.86
2023-05-22T01:45:36.857Z,97670.20
2023-05-22T01:48:08.659Z,97671.09
2023-05-22T01:50:40.161Z,97671.67
2023-05-22T01:53:19.689Z,97675.39
2023-05-22T01:55:58.186Z,97675.96
2023-05-22T01:58:36.353Z,97676.02
2023-05-22T02:01:09.733Z,97674.71
2023-05-22T02:03:42.956Z,97676.92
2023-05-22T02:06:16.334Z,97679.09
2023-05-22T02:08:47.935Z,97681.02
2023-05-22T02:11:21.600Z,97682.39
2023-05-22T02:13:52.888Z,97681.45
2023-05-22T02:16:24.548Z,97679.00
2023-05-22T02:19:06.461Z,97682.71
2023-05-22T02:21:38.378Z,97675.96
2023-05-22T02:24:09.835Z,97677.42
2023-05-22T02:26:42.706Z,97676.58
2023-05-22T02:29:14.166Z,97674.97
2023-05-22T02:31:45.780Z,97673.91
2023-05-22T02:34:17.462Z,97671.05
2023-05-22T02:36:51.100Z,97670.64
2023-05-22T02:39:22.567Z,97674.81
2023-05-22T02:41:53.592Z,97671.76
2023-05-22T02:44:25.081Z,97675.77
2023-05-22T02:46:56.422Z,97667.41
2023-05-22T02:49:27.934Z,97667.66
2023-05-22T02:51:58.986Z,97663.52
2023-05-22T02:54:30.139Z,97665.72
2023-05-22T02:57:01.189Z,97667.05
2023-05-22T02:59:32.908Z,97666.65
2023-05-22T03:02:04.313Z,97664.02
2023-05-22T03:04:38.706Z,97665.05
2023-05-22T03:07:10.196Z,97662.26
2023-05-22T03:09:41.686Z,97661.85
2023-05-22T03:12:13.315Z,97657.06
2023-05-22T03:14:44.312Z,97663.27
2023-05-22T03:17:13.691Z,97655.60
2023-05-22T03:19:43.624Z,97653.73
2023-05-22T03:22:14.776Z,97652.33
2023-05-22T03:24:45.926Z,97652.27
2023-05-22T03:27:18.270Z,97652.88
2023-05-22T03:29:49.307Z,97648.27
2023-05-22T03:32:20.760Z,97646.64
2023-05-22T03:34:51.652Z,97646.03
2023-05-22T03:37:22.713Z,97646.70
2023-05-22T03:39:53.714Z,97648.41
2023-05-22T03:42:25.188Z,97647.31
2023-05-22T03:44:56.755Z,97646.62
2023-05-22T03:47:27.867Z,97647.20
2023-05-22T03:49:59.117Z,97646.38
2023-05-22T03:52:30.353Z,97647.20
2023-05-22T03:55:02.075Z,97644.26
2023-05-22T03:57:33.318Z,97645.48
2023-05-22T04:00:06.761Z,97645.63
2023-05-22T04:02:40.051Z,97644.90
2023-05-22T04:05:12.265Z,97644.92
2023-05-22T04:07:43.912Z,97645.14
2023-05-22T04:10:15.374Z,97641.46
2023-05-22T04:12:46.442Z,97641.60
2023-05-22T04:15:17.709Z,97641.30
2023-05-22T04:17:50.002Z,97637.77
2023-05-22T04:20:22.531Z,97635.97
2023-05-22T04:22:54.496Z,97636.80
2023-05-22T04:25:25.629Z,97633.45
2023-05-22T04:27:56.902Z,97634.60
2023-05-22T04:30:28.823Z,97632.01
2023-05-22T04:33:00.302Z,97630.20
2023-05-22T04:35:32.317Z,97625.19
2023-05-22T04:38:03.690Z,97627.22
2023-05-22T04:40:34.848Z,97619.76
2023-05-22T04:43:06.337Z,97619.82
2023-05-22T04:45:37.426Z,97620.57
2023-05-22T04:48:09.332Z,97613.08
2023-05-22T04:50:40.741Z,97612.58
2023-05-22T04:53:12.714Z,97610.60
2023-05-22T04:55:43.665Z,97612.44
2023-05-22T04:58:14.697Z,97612.48
2023-05-22T05:00:45.771Z,97608.41
2023-05-22T05:03:16.783Z,97607.66
2023-05-22T05:05:47.766Z,97602.05
2023-05-22T05:08:18.770Z,97603.23
2023-05-22T05:10:49.902Z,97602.66
2023-05-22T05:13:20.879Z,97601.67
2023-05-22T05:15:52.022Z,97601.13
2023-05-22T05:18:23.193Z,97602.55
2023-05-22T05:20:54.310Z,97597.20
2023-05-22T05:23:25.702Z,97597.83
2023-05-22T05:25:56.985Z,97597.12
2023-05-22T05:28:28.377Z,97597.14
2023-05-22T05:30:59.378Z,97602.01
2023-05-22T05:33:30.881Z,97602.80
2023-05-22T05:36:01.905Z,97599.20
2023-05-22T05:38:32.916Z,97605.88
2023-05-22T05:41:03.802Z,97605.30
2023-05-22T05:43:34.806Z,97602.57
2023-05-22T05:46:06.194Z,97601.09
2023-05-22T05:48:37.693Z,97599.89
2023-05-22T05:51:08.892Z,97599.56
2023-05-22T05:53:40.775Z,97602.76
2023-05-22T05:56:12.286Z,97598.71
2023-05-22T05:58:43.376Z,97595.77
2023-05-22T06:01:14.742Z,97593.91
2023-05-22T06:03:46.099Z,97597.55
2023-05-22T06:06:17.597Z,97596.62
2023-05-22T06:08:48.822Z,97595.58
2023-05-22T06:11:19.769Z,97593.52
2023-05-22T06:13:50.906Z,97594.59
2023-05-22T06:16:21.855Z,97594.09
2023-05-22T06:18:53.349Z,97590.52
2023-05-22T06:21:24.703Z,97583.45
2023-05-22T06:23:55.990Z,97584.48
2023-05-22T06:26:27.769Z,97583.41
2023-05-22T06:28:58.772Z,97581.61
2023-05-22T06:31:30.181Z,97581.01
2023-05-22T06:34:01.415Z,97579.41
2023-05-22T06:36:34.791Z,97577.01
2023-05-22T06:39:05.894Z,97576.02
2023-05-22T06:41:36.922Z,97582.31
2023-05-22T06:44:08.254Z,97576.63
2023-05-22T06:46:39.487Z,97576.40
2023-05-22T06:49:10.634Z,97577.58
2023-05-22T06:51:41.621Z,97577.63
2023-05-22T06:54:13.939Z,97574.87
2023-05-22T06:56:44.840Z,97574.19
2023-05-22T06:59:16.319Z,97576.95
2023-05-22T07:01:47.529Z,97577.54
2023-05-22T07:04:18.843Z,97578.20
2023-05-22T07:06:50.100Z,97576.83
2023-05-22T07:09:21.972Z,97577.75
2023-05-22T07:11:52.992Z,97571.91
2023-05-22T07:14:23.891Z,97573.30
2023-05-22T07:16:54.812Z,97571.10
2023-05-22T07:19:26.131Z,97571.52
2023-05-22T07:21:57.263Z,97570.43
2023-05-22T07:24:28.422Z,97572.91
2023-05-22T07:26:59.491Z,97576.73
2023-05-22T07:29:30.632Z,97576.29
2023-05-22T07:32:01.772Z,97572.79
2023-05-22T07:34:34.360Z,97569.96
2023-05-22T07:37:12.586Z,97565.77
2023-05-22T07:39:43.712Z,97562.64
2023-05-22T07:42:15.186Z,97565.05
2023-05-22T07:44:46.124Z,97558.84
2023-05-22T07:47:17.465Z,97557.64
2023-05-22T07:49:48.383Z,97558.92
2023-05-22T07:52:19.942Z,97558.04
2023-05-22T07:54:51.059Z,97559.54
2023-05-22T07:57:23.088Z,97559.77
2023-05-22T07:59:54.065Z,97561.95
2023-05-22T08:02:25.052Z,97560.55
2023-05-22T08:04:56.313Z,97558.23
2023-05-22T08:07:27.614Z,97565.34
2023-05-22T08:09:58.632Z,97557.10
2023-05-22T08:12:29.812Z,97560.99
2023-05-22T08:15:00.900Z,97555.08
2023-05-22T08:17:33.857Z,97555.08
2023-05-22T08:20:07.208Z,97551.77
2023-05-22T08:22:39.808Z,97550.34
2023-05-22T08:25:11.871Z,97550.72
2023-05-22T08:27:42.945Z,97552.77
2023-05-22T08:30:14.858Z,97553.52
2023-05-22T08:32:46.174Z,97547.83
2023-05-22T08:35:17.786Z,97546.92
2023-05-22T08:37:48.917Z,97548.71
2023-05-22T08:40:23.176Z,97550.80
2023-05-22T08:42:55.146Z,97545.46
2023-05-22T08:45:29.961Z,97549.66
2023-05-22T08:48:05.044Z,97544.33
2023-05-22T08:50:40.006Z,97538.55
2023-05-22T08:53:16.572Z,97534.95
2023-05-22T08:55:47.735Z,97536.15
2023-05-22T08:58:20.022Z,97533.80
2023-05-22T09:00:51.161Z,97530.55
2023-05-22T09:03:23.211Z,97528.20
2023-05-22T09:05:54.846Z,97525.63
2023-05-22T09:08:26.178Z,97525.27
2023-05-22T09:10:57.244Z,97523.36
2023-05-22T09:13:30.157Z,97519.00
2023-05-22T09:16:11.408Z,97515.01
2023-05-22T09:18:43.248Z,97515.67
2023-05-22T09:21:28.860Z,97516.20
2023-05-22T09:24:03.885Z,97513.66
2023-05-22T09:26:35.527Z,97512.52
2023-05-22T09:29:08.677Z,97510.34
2023-05-22T09:31:44.304Z,97507.25
2023-05-22T09:34:16.003Z,97514.40
2023-05-22T09:36:47.309Z,97511.77
2023-05-22T09:39:18.555Z,97513.20
2023-05-22T09:41:49.761Z,97517.42
2023-05-22T09:44:21.636Z,97516.34
2023-05-22T09:46:52.748Z,97514.23
2023-05-22T09:49:24.035Z,97508.84
2023-05-22T09:51:57.525Z,97508.73
2023-05-22T09:54:29.423Z,97505.07
2023-05-22T09:57:01.824Z,97507.52
2023-05-22T09:59:33.437Z,97505.66
2023-05-22T10:02:04.753Z,97504.55
2023-05-22T10:04:37.436Z,97506.60
2023-05-22T10:07:11.664Z,97496.59
2023-05-22T10:09:44.456Z,97498.73
2023-05-22T10:12:29.951Z,97500.10
2023-05-22T10:15:02.704Z,97502.35
2023-05-22T10:17:35.571Z,97497.95
2023-05-22T10:20:08.112Z,97500.27
2023-05-22T10:22:39.948Z,97501.66
2023-05-22T10:25:12.357Z,97501.52
2023-05-22T10:27:43.777Z,97498.95
2023-05-22T10:30:22.089Z,97500.61
2023-05-22T10:33:02.116Z,97498.77
2023-05-22T10:35:42.238Z,97501.05
2023-05-22T10:38:29.761Z,97496.14
2023-05-22T10:41:02.771Z,97496.87
2023-05-22T10:43:34.101Z,97490.60
2023-05-22T10:46:07.755Z,97496.26
2023-05-22T10:48:45.427Z,97490.79
2023-05-22T10:51:20.625Z,97491.11
2023-05-22T10:53:59.748Z,97490.50
2023-05-22T10:56:37.316Z,97483.46
2023-05-22T10:59:08.870Z,97482.48
2023-05-22T11:01:39.912Z,97482.27
2023-05-22T11:04:16.104Z,97480.02
2023-05-22T11:06:49.829Z,97480.35
2023-05-22T11:09:30.900Z,97472.48
2023-05-22T11:12:22.480Z,97471.26
2023-05-22T11:14:55.751Z,97471.59
2023-05-22T11:17:29.176Z,97468.81
2023-05-22T11:20:06.406Z,97468.11
2023-05-22T11:22:40.131Z,97473.98
2023-05-22T11:25:16.920Z,97469.36
2023-05-22T11:27:50.808Z,97461.93
2023-05-22T11:30:26.601Z,97457.06
2023-05-22T11:32:58.873Z,97458.77
2023-05-22T11:35:30.792Z,97459.91
2023-05-22T11:38:05.001Z,97458.61
2023-05-22T11:40:36.345Z,97457.23
2023-05-22T11:43:07.407Z,97461.52
2023-05-22T11:45:42.198Z,97456.34
2023-05-22T11:48:15.587Z,97459.48
2023-05-22T11:50:48.473Z,97453.68
2023-05-22T11:53:20.020Z,97452.96
2023-05-22T11:55:52.320Z,97452.52
2023-05-22T11:58:29.900Z,97449.70
2023-05-22T12:01:06.029Z,97453.29
2023-05-22T12:03:37.293Z,97448.99
2023-05-22T12:06:18.338Z,97451.10
2023-05-22T12:08:49.500Z,97450.95
2023-05-22T12:11:21.703Z,97445.17
2023-05-22T12:14:03.135Z,97442.77
2023-05-22T12:16:38.376Z,97446.59
2023-05-22T12:19:10.199Z,97448.20
2023-05-22T12:21:42.314Z,97443.01
2023-05-22T12:24:13.488Z,97443.79
2023-05-22T12:26:52.261Z,97443.70
2023-05-22T12:29:24.885Z,97444.28
2023-05-22T12:31:55.914Z,97443.10
2023-05-22T12:34:26.883Z,97443.09
2023-05-22T12:36:58.067Z,97441.17
2023-05-22T12:39:30.892Z,97439.05
2023-05-22T12:42:02.173Z,97440.28
2023-05-22T12:44:34.592Z,97438.19
2023-05-22T12:47:06.144Z,97439.20
2023-05-22T12:49:37.303Z,97440.65
2023-05-22T12:52:08.579Z,97438.39
2023-05-22T12:54:39.746Z,97433.88
2023-05-22T12:57:11.184Z,97432.11
2023-05-22T12:59:42.440Z,97435.99
2023-05-22T13:02:13.513Z,97432.63
2023-05-22T13:04:44.564Z,97430.80
2023-05-22T13:07:16.038Z,97430.36
2023-05-22T13:09:47.134Z,97428.23
2023-05-22T13:12:19.403Z,97424.75
2023-05-22T13:14:50.727Z,97420.12
2023-05-22T13:17:21.875Z,97418.65
2023-05-22T13:19:53.187Z,97422.05
2023-05-22T13:22:25.026Z,97412.02
2023-05-22T13:24:56.273Z,97409.02
2023-05-22T13:27:28.050Z,97405.89
2023-05-22T13:29:59.309Z,97404.92
2023-05-22T13:32:30.437Z,97403.63
2023-05-22T13:35:01.832Z,97396.58
2023-05-22T13:37:34.319Z,97394.20
2023-05-22T13:40:06.474Z,97396.90
2023-05-22T13:42:38.122Z,97397.91
2023-05-22T13:45:11.533Z,97393.61
2023-05-22T13:47:42.892Z,97396.66
2023-05-22T13:50:14.105Z,97393.86
2023-05-22T13:52:46.056Z,97390.13
2023-05-22T13:55:17.207Z,97385.72
2023-05-22T13:57:48.403Z,97384.64
2023-05-22T14:00:21.368Z,97387.05
2023-05-22T14:02:52.841Z,97385.19
2023-05-22T14:05:24.539Z,97380.20
2023-05-22T14:07:56.895Z,97380.09
2023-05-22T14:10:28.026Z,97377.70
2023-05-22T14:12:58.938Z,97373.38
2023-05-22T14:15:30.172Z,97375.25
2023-05-22T14:18:01.653Z,97372.70
2023-05-22T14:20:33.801Z,97368.63
2023-05-22T14:23:04.932Z,97367.11
2023-05-22T14:25:36.204Z,97367.85
2023-05-22T14:28:07.471Z,97366.75
2023-05-22T14:30:38.631Z,97373.79
2023-05-22T14:33:10.208Z,97372.10
2023-05-22T14:35:41.626Z,97370.78
2023-05-22T14:38:13.036Z,97372.10
2023-05-22T14:40:44.297Z,97374.05
2023-05-22T14:43:15.809Z,97367.45
2023-05-22T14:45:47.216Z,97369.63
2023-05-22T14:48:18.366Z,97368.34
2023-05-22T14:50:50.786Z,97365.00
2023-05-22T14:53:22.342Z,97367.02
2023-05-22T14:55:53.980Z,97362.21
2023-05-22T14:58:25.322Z,97361.59
2023-05-22T15:00:56.238Z,97359.27
2023-05-22T15:03:27.264Z,97357.75
2023-05-22T15:05:58.956Z,97360.11
2023-05-22T15:08:30.428Z,97354.40
2023-05-22T15:11:01.578Z,97351.77
2023-05-22T15:13:33.038Z,97350.54
2023-05-22T15:16:04.164Z,97349.85
2023-05-22T15:18:35.463Z,97349.16
2023-05-22T15:21:06.754Z,97347.39
2023-05-22T15:23:37.906Z,97348.45
2023-05-22T15:26:08.995Z,97342.40
2023-05-22T15:28:40.065Z,97340.34
2023-05-22T15:31:11.313Z,97337.29
2023-05-22T15:33:42.421Z,97331.36
2023-05-22T15:36:13.623Z,97329.90
2023-05-22T15:38:44.971Z,97323.87
2023-05-22T15:41:16.369Z,97322.21
2023-05-22T15:43:47.659Z,97318.15
2023-05-22T15:46:19.496Z,97315.09
2023-05-22T15:48:50.792Z,97315.33
2023-05-22T15:51:21.917Z,97317.09
2023-05-22T15:53:53.376Z,97314.42
2023-05-22T15:56:24.816Z,97312.86
2023-05-22T15:58:56.341Z,97309.76
2023-05-22T16:01:29.500Z,97307.66
2023-05-22T16:04:01.167Z,97307.02
2023-05-22T16:06:32.880Z,97304.23
2023-05-22T16:09:04.029Z,97304.09
2023-05-22T16:11:35.003Z,97303.98
2023-05-22T16:14:06.581Z,97303.27
2023-05-22T16:16:37.773Z,97299.19
2023-05-22T16:19:08.783Z,97303.55
2023-05-22T16:21:41.066Z,97306.41
2023-05-22T16:24:12.195Z,97303.10
2023-05-22T16:26:43.238Z,97304.02
2023-05-22T16:29:14.262Z,97308.00
2023-05-22T16:31:45.331Z,97307.30
2023-05-22T16:34:16.337Z,97308.02
2023-05-22T16:36:47.586Z,97305.10
2023-05-22T16:39:18.953Z,97309.98
2023-05-22T16:41:51.623Z,97306.51
2023-05-22T16:44:24.584Z,97308.93
2023-05-22T16:46:55.913Z,97313.57
2023-05-22T16:49:27.139Z,97313.51
2023-05-22T16:51:58.817Z,97314.39
2023-05-22T16:54:30.153Z,97317.51
2023-05-22T16:57:01.875Z,97321.91
2023-05-22T16:59:33.362Z,97317.73
2023-05-22T17:02:04.943Z,97317.82
2023-05-22T17:04:36.060Z,97318.12
2023-05-22T17:07:07.705Z,97317.25
2023-05-22T17:09:38.832Z,97312.45
2023-05-22T17:12:10.819Z,97313.63
2023-05-22T17:14:41.864Z,97311.08
2023-05-22T17:17:13.155Z,97312.83
2023-05-22T17:19:44.188Z,97314.82
2023-05-22T17:22:16.443Z,97316.13
2023-05-22T17:24:48.540Z,97316.16
2023-05-22T17:27:34.349Z,97310.08
2023-05-22T17:30:08.636Z,97308.95
2023-05-22T17:32:40.085Z,97306.02
2023-05-22T17:35:12.441Z,97307.60
2023-05-22T17:37:43.694Z,97313.60
2023-05-22T17:40:15.014Z,97317.66
2023-05-22T17:43:05.858Z,97315.62
2023-05-22T17:45:37.085Z,97314.23
2023-05-22T17:48:09.126Z,97312.13
2023-05-22T17:50:40.600Z,97322.13
2023-05-22T17:53:13.583Z,97316.91
2023-05-22T17:55:45.201Z,97322.52
2023-05-22T17:58:17.690Z,97319.97
2023-05-22T18:00:49.197Z,97320.14
2023-05-22T18:03:21.671Z,97318.30
2023-05-22T18:05:53.073Z,97318.92
2023-05-22T18:08:24.246Z,97319.51
2023-05-22T18:10:55.913Z,97318.73
2023-05-22T18:13:27.124Z,97320.92
2023-05-22T18:15:58.192Z,97317.89
2023-05-22T18:18:29.273Z,97315.38
2023-05-22T18:21:01.042Z,97316.10
2023-05-22T18:23:32.934Z,97317.63
2023-05-22T18:26:04.204Z,97313.52
2023-05-22T18:28:35.595Z,97315.36
2023-05-22T18:31:08.157Z,97317.60
2023-05-22T18:33:40.214Z,97314.30
2023-05-22T18:36:11.310Z,97314.30
2023-05-22T18:38:42.667Z,97315.77
2023-05-22T18:41:13.728Z,97319.16
2023-05-22T18:43:45.094Z,97323.89
2023-05-22T18:46:16.765Z,97324.36
2023-05-22T18:48:48.266Z,97327.52
2023-05-22T18:51:20.059Z,97326.05
2023-05-22T18:53:51.855Z,97323.71
2023-05-22T18:56:23.017Z,97324.64
2023-05-22T18:58:53.995Z,97326.91
2023-05-22T19:01:25.103Z,97331.84
2023-05-22T19:03:56.112Z,97326.36
2023-05-22T19:06:27.504Z,97330.21
2023-05-22T19:08:59.082Z,97334.52
2023-05-22T19:11:30.254Z,97339.55
2023-05-22T19:14:02.568Z,97335.67
2023-05-22T19:16:34.012Z,97337.11
2023-05-22T19:19:06.784Z,97333.77
2023-05-22T19:21:37.882Z,97334.89
2023-05-22T19:24:09.734Z,97333.42
2023-05-22T19:26:40.733Z,97339.42
2023-05-22T19:29:11.746Z,97340.42
2023-05-22T19:31:43.559Z,97346.89
2023-05-22T19:34:15.365Z,97351.98
2023-05-22T19:36:46.492Z,97353.67
2023-05-22T19:39:17.742Z,97356.75
2023-05-22T19:41:51.117Z,97359.47
2023-05-22T19:44:23.169Z,97360.02
2023-05-22T19:46:54.361Z,97358.78
2023-05-22T19:49:25.589Z,97360.05
2023-05-22T19:51:56.682Z,97356.84
2023-05-22T19:54:28.056Z,97355.42
2023-05-22T19:56:59.596Z,97354.51
2023-05-22T19:59:30.840Z,97354.41
2023-05-22T20:02:01.871Z,97353.42
2023-05-22T20:04:33.313Z,97353.01
2023-05-22T20:07:05.732Z,97349.64
2023-05-22T20:09:37.556Z,97351.02
2023-05-22T20:12:10.508Z,97349.79
2023-05-22T20:14:42.165Z,97349.82
2023-05-22T20:17:13.904Z,97346.64
2023-05-22T20:19:45.276Z,97348.77
2023-05-22T20:22:16.806Z,97352.87
2023-05-22T20:24:48.369Z,97351.64
2023-05-22T20:27:19.616Z,97347.17
2023-05-22T20:29:50.966Z,97347.89
2023-05-22T20:32:22.405Z,97351.30
2023-05-22T20:34:55.342Z,97349.08
2023-05-22T20:37:26.541Z,97345.11
2023-05-22T20:40:09.485Z,97345.46
2023-05-22T20:42:39.344Z,97344.98
2023-05-22T20:45:14.591Z,97343.66
2023-05-22T20:47:46.687Z,97343.48
2023-05-22T20:50:18.101Z,97342.70
2023-05-22T20:52:49.481Z,97345.27
2023-05-22T20:55:20.977Z,97347.48
2023-05-22T20:57:52.271Z,97350.20
2023-05-22T21:00:24.290Z,97351.92
2023-05-22T21:02:58.128Z,97348.95
2023-05-22T21:05:29.720Z,97354.67
2023-05-22T21:08:00.955Z,97353.76
2023-05-22T21:10:31.936Z,97358.15
2023-05-22T21:13:02.900Z,97357.70
2023-05-22T21:15:34.322Z,97359.34
2023-05-22T21:18:05.391Z,97358.69
2023-05-22T21:20:36.459Z,97357.88
2023-05-22T21:23:07.516Z,97361.91
2023-05-22T21:25:38.508Z,97361.44
2023-05-22T21:28:09.525Z,97361.58
2023-05-22T21:30:40.802Z,97359.71
2023-05-22T21:33:12.276Z,97361.47
2023-05-22T21:35:43.590Z,97359.01
2023-05-22T21:38:15.494Z,97359.27
2023-05-22T21:40:46.959Z,97354.92
2023-05-22T21:43:18.012Z,97355.98
2023-05-22T21:45:49.226Z,97359.17
2023-05-22T21:48:20.318Z,97364.57
2023-05-22T21:50:51.344Z,97371.60
2023-05-22T21:53:22.275Z,97372.18
2023-05-22T21:55:53.428Z,97374.65
2023-05-22T21:58:24.534Z,97369.46
2023-05-22T22:00:55.570Z,97364.58
2023-05-22T22:03:26.932Z,97359.56
2023-05-22T22:05:58.293Z,97356.79
2023-05-22T22:08:29.529Z,97354.32
2023-05-22T22:11:00.469Z,97352.86
2023-05-22T22:13:31.747Z,97354.70
2023-05-22T22:16:02.812Z,97350.66
2023-05-22T22:18:35.028Z,97348.35
2023-05-22T22:21:06.296Z,97351.46
2023-05-22T22:23:37.308Z,97349.68
2023-05-22T22:26:08.503Z,97349.23
2023-05-22T22:28:39.630Z,97348.16
2023-05-22T22:31:10.632Z,97347.42
2023-05-22T22:33:42.297Z,97341.50
2023-05-22T22:36:13.443Z,97344.08
2023-05-22T22:38:44.811Z,97339.89
2023-05-22T22:41:16.055Z,97343.35
2023-05-22T22:43:47.350Z,97345.42
2023-05-22T22:46:21.899Z,97347.79
2023-05-22T22:48:54.481Z,97347.77
2023-05-22T22:51:26.152Z,97346.50
2023-05-22T22:53:57.421Z,97344.09
2023-05-22T22:56:29.637Z,97345.50
2023-05-22T22:59:00.655Z,97345.52
2023-05-22T23:01:31.824Z,97344.83
2023-05-22T23:04:03.022Z,97343.98
2023-05-22T23:06:34.796Z,97340.16
2023-05-22T23:09:06.341Z,97341.18
2023-05-22T23:11:38.305Z,97341.67
2023-05-22T23:14:10.462Z,97342.27
2023-05-22T23:16:42.055Z,97347.15
2023-05-22T23:19:13.958Z,97345.74
2023-05-22T23:21:45.322Z,97341.23
2023-05-22T23:24:16.768Z,97343.86
2023-05-22T23:26:47.829Z,97334.68
2023-05-22T23:29:19.003Z,97334.85
2023-05-22T23:31:50.777Z,97333.98
2023-05-22T23:34:22.011Z,97330.10
2023-05-22T23:36:53.078Z,97331.25
2023-05-22T23:39:24.296Z,97332.37
2023-05-22T23:41:55.735Z,97329.96
2023-05-22T23:44:26.854Z,97323.45
2023-05-22T23:46:58.406Z,97317.57
2023-05-22T23:49:29.610Z,97312.14
2023-05-22T23:52:01.115Z,97306.77
2023-05-22T23:54:32.128Z,97304.90
2023-05-22T23:57:03.259Z,97301.41
2023-05-22T23:59:34.424Z,97297.55
